I Boat 2 — 2CMM8 — position and weather

sailwx.info

Track history (hours):
 
Tides and Currents Weather Stations Pressure Air Temp Water Temp Dewpoint Dewpoint Depression Visibility Wind Speed Wind Dir Waves Ship Positions

I Boat 2

Last reported at 2014-Sep-15 08:32 UTC. Time now 2014-Sep-15 09:34 UTC.
Position N 44°06' E 009°51'.

Length 40 m; draft 2.4 m.

Type: Pleasure craft. MMSI: 235074051.

Date/timePositionNaut miles runAvg speedWind from/ knotsBaromVisibWave heightAir tempDewpointWater temp
2014-Sep-15 08:32N 44°06' E 009°51'0 0.0
2014-Sep-15 07:32N 44°06' E 009°51'0 0.0
2014-Sep-15 06:32N 44°06' E 009°51'0 0.0
2014-Sep-15 05:32N 44°06' E 009°51'0 0.0
2014-Sep-15 04:32N 44°06' E 009°51'0 0.0
2014-Sep-15 03:33N 44°06' E 009°51'8 7.6
2014-Sep-15 02:33N 43°60' E 009°45'1312.7
2014-Sep-15 01:33N 43°56' E 009°28'1312.7
2014-Sep-15 00:33N 43°52' E 009°11'1312.7
2014-Sep-14 23:33N 43°48' E 008°54'8212.7
2014-Sep-14 17:07N 43°23' E 007°07'712.5
2014-Sep-14 16:33N 43°21' E 006°58'1312.6
2014-Sep-14 15:33N 43°18' E 006°41'3 1.4
2014-Sep-14 13:27N 43°16' E 006°37'0 0.0
2014-Sep-14 12:06N 43°16' E 006°37'0 0.0
2014-Sep-14 10:18N 43°16' E 006°37'0 0.0
2014-Sep-14 09:27N 43°16' E 006°37'0 0.0
2014-Sep-14 08:24N 43°16' E 006°37'6 0.4
2014-Sep-13 15:27N 43°20' E 006°44'1213.3
2014-Sep-13 14:33N 43°27' E 006°56'6 2.7
2014-Sep-13 12:17N 43°33' E 007°00'4 0.9
2014-Sep-13 08:28N 43°30' E 007°03'1213.6
2014-Sep-13 07:33N 43°38' E 007°16'  
Track history (hours):
 
Tides and Currents Weather Stations Pressure Air Temp Water Temp Dewpoint Dewpoint Depression Visibility Wind Speed Wind Dir Waves Ship Positions

I Boat 2

Last reported at 2014-Sep-15 08:32 UTC. Time now 2014-Sep-15 09:34 UTC.
Position N 44°06' E 009°51'.

Length 40 m; draft 2.4 m.

Type: Pleasure craft. MMSI: 235074051.

Date/timePositionNaut miles runAvg speedWind from/ knotsBaromVisibWave heightAir tempDewpointWater temp
2014-Sep-15 08:32N 44°06' E 009°51'0 0.0
2014-Sep-15 07:32N 44°06' E 009°51'0 0.0
2014-Sep-15 06:32N 44°06' E 009°51'0 0.0
2014-Sep-15 05:32N 44°06' E 009°51'0 0.0
2014-Sep-15 04:32N 44°06' E 009°51'0 0.0
2014-Sep-15 03:33N 44°06' E 009°51'8 7.6
2014-Sep-15 02:33N 43°60' E 009°45'1312.7
2014-Sep-15 01:33N 43°56' E 009°28'1312.7
2014-Sep-15 00:33N 43°52' E 009°11'1312.7
2014-Sep-14 23:33N 43°48' E 008°54'8212.7
2014-Sep-14 17:07N 43°23' E 007°07'712.5
2014-Sep-14 16:33N 43°21' E 006°58'1312.6
2014-Sep-14 15:33N 43°18' E 006°41'3 1.4
2014-Sep-14 13:27N 43°16' E 006°37'0 0.0
2014-Sep-14 12:06N 43°16' E 006°37'0 0.0
2014-Sep-14 10:18N 43°16' E 006°37'0 0.0
2014-Sep-14 09:27N 43°16' E 006°37'0 0.0
2014-Sep-14 08:24N 43°16' E 006°37'6 0.4
2014-Sep-13 15:27N 43°20' E 006°44'1213.3
2014-Sep-13 14:33N 43°27' E 006°56'6 2.7
2014-Sep-13 12:17N 43°33' E 007°00'4 0.9
2014-Sep-13 08:28N 43°30' E 007°03'1213.6
2014-Sep-13 07:33N 43°38' E 007°16'  

Dump ship's entire track history